createdAt,value
2019-01-29T00:03:41.395Z,99059.00
2019-01-29T00:08:42.676Z,99067.00
2019-01-29T00:13:43.882Z,99059.00
2019-01-29T00:18:45.236Z,99064.00
2019-01-29T00:23:46.488Z,99066.00
2019-01-29T00:28:47.763Z,99078.00
2019-01-29T00:33:49.102Z,99077.00
2019-01-29T00:38:50.464Z,99082.00
2019-01-29T00:43:51.728Z,99096.00
2019-01-29T00:48:52.975Z,99090.00
2019-01-29T00:53:54.228Z,99092.00
2019-01-29T00:58:55.494Z,99101.00
2019-01-29T01:03:56.774Z,99113.00
2019-01-29T01:08:58.033Z,99121.00
2019-01-29T01:13:59.275Z,99119.00
2019-01-29T01:19:00.627Z,99141.00
2019-01-29T01:24:01.979Z,99142.00
2019-01-29T01:29:03.535Z,99157.00
2019-01-29T01:34:04.789Z,99159.00
2019-01-29T01:39:07.227Z,99154.00
2019-01-29T01:44:08.462Z,99147.00
2019-01-29T01:49:09.803Z,99159.00
2019-01-29T01:54:11.051Z,99160.00
2019-01-29T01:59:12.302Z,99167.00
2019-01-29T02:04:13.659Z,99173.00
2019-01-29T02:09:14.915Z,99178.00
2019-01-29T02:14:16.195Z,99193.00
2019-01-29T02:19:17.424Z,99184.00
2019-01-29T02:24:18.737Z,99185.00
2019-01-29T02:29:19.939Z,99181.00
2019-01-29T02:34:21.183Z,99188.00
2019-01-29T02:39:22.421Z,99182.00
2019-01-29T02:44:23.679Z,99189.00
2019-01-29T02:49:24.917Z,99194.00
2019-01-29T02:54:26.179Z,99190.00
2019-01-29T02:59:27.423Z,99197.00
2019-01-29T03:04:28.685Z,99196.00
2019-01-29T03:09:29.930Z,99202.00
2019-01-29T03:14:31.185Z,99184.00
2019-01-29T03:19:32.464Z,99195.00
2019-01-29T03:24:33.707Z,99192.00
2019-01-29T03:29:34.947Z,99201.00
2019-01-29T03:34:36.184Z,99193.00
2019-01-29T03:39:37.482Z,99193.00
2019-01-29T03:44:38.677Z,99211.00
2019-01-29T03:49:39.939Z,99214.00
2019-01-29T03:54:41.183Z,99212.00
2019-01-29T03:59:42.512Z,99217.00
2019-01-29T04:04:43.757Z,99224.00
2019-01-29T04:09:45.570Z,99245.00
2019-01-29T04:14:46.831Z,99240.00
2019-01-29T04:19:48.077Z,99234.00
2019-01-29T04:24:49.319Z,99229.00
2019-01-29T04:29:50.580Z,99238.00
2019-01-29T04:34:51.922Z,99242.00
2019-01-29T04:39:53.160Z,99246.00
2019-01-29T04:44:54.459Z,99240.00
2019-01-29T04:49:55.707Z,99244.00
2019-01-29T04:54:56.948Z,99246.00
2019-01-29T04:59:58.197Z,99248.00
2019-01-29T05:04:59.452Z,99257.00
2019-01-29T05:10:00.737Z,99245.00
2019-01-29T05:15:05.750Z,99266.00
2019-01-29T05:20:11.396Z,99259.00
2019-01-29T05:25:13.633Z,99257.00
2019-01-29T05:30:20.734Z,99263.00
2019-01-29T05:35:22.315Z,99265.00
2019-01-29T05:40:23.750Z,99264.00
2019-01-29T05:45:24.992Z,99264.00
2019-01-29T05:50:26.239Z,99258.00
2019-01-29T05:55:27.479Z,99262.00
2019-01-29T06:00:30.849Z,99265.00
2019-01-29T06:05:32.323Z,99266.00
2019-01-29T06:10:33.575Z,99261.00
2019-01-29T06:15:34.939Z,99268.00
2019-01-29T06:20:36.177Z,99266.00
2019-01-29T06:25:39.211Z,99276.00
2019-01-29T06:30:40.686Z,99277.00
2019-01-29T06:35:41.931Z,99274.00
2019-01-29T06:40:43.194Z,99269.00
2019-01-29T06:45:44.479Z,99275.00
2019-01-29T06:50:45.709Z,99284.00
2019-01-29T06:55:46.946Z,99275.00
2019-01-29T07:00:48.197Z,99274.00
2019-01-29T07:05:49.476Z,99283.00
2019-01-29T07:10:51.226Z,99300.00
2019-01-29T07:15:57.365Z,99304.00
2019-01-29T07:20:58.829Z,99308.00
2019-01-29T07:26:00.090Z,99327.00
2019-01-29T07:31:01.848Z,99329.00
2019-01-29T07:36:03.502Z,99329.00
2019-01-29T07:41:04.846Z,99336.00
2019-01-29T07:46:06.506Z,99334.00
2019-01-29T07:51:07.860Z,99345.00
2019-01-29T07:56:09.109Z,99334.00
2019-01-29T08:01:10.363Z,99335.00
2019-01-29T08:06:11.604Z,99345.00
2019-01-29T08:11:12.846Z,99354.00
2019-01-29T08:16:15.504Z,99358.00
2019-01-29T08:21:16.974Z,99362.00
2019-01-29T08:26:18.221Z,99356.00
2019-01-29T08:31:19.464Z,99348.00
2019-01-29T08:36:20.911Z,99348.00
2019-01-29T08:41:22.166Z,99351.00
2019-01-29T08:46:23.522Z,99341.00
2019-01-29T08:51:24.756Z,99350.00
2019-01-29T08:56:26.301Z,99349.00
2019-01-29T09:01:27.535Z,99343.00
2019-01-29T09:06:28.771Z,99346.00
2019-01-29T09:11:30.011Z,99348.00
2019-01-29T09:16:31.254Z,99338.00
2019-01-29T09:21:32.492Z,99338.00
2019-01-29T09:26:33.771Z,99320.00
2019-01-29T09:31:34.992Z,99324.00
2019-01-29T09:36:36.331Z,99326.00
2019-01-29T09:41:37.570Z,99325.00
2019-01-29T09:46:38.932Z,99329.00
2019-01-29T09:51:40.289Z,99328.00
2019-01-29T09:56:41.539Z,99322.00
2019-01-29T10:01:42.786Z,99329.00
2019-01-29T10:06:44.293Z,99336.00
2019-01-29T10:11:45.489Z,99331.00
2019-01-29T10:16:46.719Z,99333.00
2019-01-29T10:21:47.966Z,99325.00
2019-01-29T10:26:49.240Z,99317.00
2019-01-29T10:31:50.495Z,99310.00
2019-01-29T10:36:51.843Z,99295.00
2019-01-29T10:41:53.089Z,99283.00
2019-01-29T10:46:54.446Z,99279.00
2019-01-29T10:51:55.784Z,99273.00
2019-01-29T10:56:57.028Z,99265.00
2019-01-29T11:01:58.288Z,99254.00
2019-01-29T11:06:59.538Z,99239.00
2019-01-29T11:12:00.781Z,99237.00
2019-01-29T11:17:02.341Z,99232.00
2019-01-29T11:22:04.293Z,99234.00
2019-01-29T11:27:05.552Z,99228.00
2019-01-29T11:32:06.915Z,99221.00
2019-01-29T11:37:08.276Z,99213.00
2019-01-29T11:42:09.525Z,99206.00
2019-01-29T11:47:10.801Z,99194.00
2019-01-29T11:52:12.049Z,99177.00
2019-01-29T11:57:13.300Z,99171.00
2019-01-29T12:02:14.552Z,99167.00
2019-01-29T12:07:15.858Z,99154.00
2019-01-29T12:12:17.053Z,99150.00
2019-01-29T12:17:18.298Z,99132.00
2019-01-29T12:22:19.835Z,99136.00
2019-01-29T12:27:21.067Z,99125.00
2019-01-29T12:32:22.368Z,99134.00
2019-01-29T12:37:23.603Z,99111.00
2019-01-29T12:42:24.874Z,99118.00
2019-01-29T12:47:26.446Z,99109.00
2019-01-29T12:52:29.598Z,99109.00
2019-01-29T12:57:31.015Z,99097.00
2019-01-29T13:02:32.256Z,99099.00
2019-01-29T13:07:33.609Z,99093.00
2019-01-29T13:12:36.487Z,99078.00
2019-01-29T13:17:37.881Z,99070.00
2019-01-29T13:22:39.134Z,99071.00
2019-01-29T13:27:40.489Z,99062.00
2019-01-29T13:32:41.746Z,99049.00
2019-01-29T13:37:43.142Z,99044.00
2019-01-29T13:42:44.406Z,99033.00
2019-01-29T13:47:45.797Z,99034.00
2019-01-29T13:52:47.154Z,99020.00
2019-01-29T13:57:48.911Z,99014.00
2019-01-29T14:02:52.202Z,99010.00
2019-01-29T14:07:53.559Z,98997.00
2019-01-29T14:12:55.145Z,98994.00
2019-01-29T14:17:56.611Z,98979.00
2019-01-29T14:22:57.978Z,98984.00
2019-01-29T14:27:59.245Z,98968.00
2019-01-29T14:33:00.595Z,98958.00
2019-01-29T14:38:19.334Z,98955.00
2019-01-29T14:43:26.734Z,98948.00
2019-01-29T14:48:27.957Z,98949.00
2019-01-29T14:53:29.202Z,98942.00
2019-01-29T14:58:30.478Z,98936.00
2019-01-29T15:03:31.734Z,98935.00
2019-01-29T15:08:33.013Z,98933.00
2019-01-29T15:13:34.252Z,98930.00
2019-01-29T15:18:56.019Z,98919.00
2019-01-29T15:23:57.283Z,98916.00
2019-01-29T15:28:58.548Z,98918.00
2019-01-29T15:33:59.822Z,98916.00
2019-01-29T15:39:01.075Z,98913.00
2019-01-29T15:44:02.869Z,98897.00
2019-01-29T15:49:04.519Z,98894.00
2019-01-29T15:54:06.973Z,98886.00
2019-01-29T15:59:08.316Z,98888.00
2019-01-29T16:04:09.683Z,98871.00
2019-01-29T16:09:10.969Z,98865.00
2019-01-29T16:14:12.236Z,98850.00
2019-01-29T16:19:13.557Z,98842.00
2019-01-29T16:24:14.790Z,98834.00
2019-01-29T16:29:16.055Z,98836.00
2019-01-29T16:34:17.467Z,98825.00
2019-01-29T16:39:18.703Z,98822.00
2019-01-29T16:44:19.995Z,98816.00
2019-01-29T16:49:21.275Z,98797.00
2019-01-29T16:54:22.544Z,98796.00
2019-01-29T16:59:23.809Z,98784.00
2019-01-29T17:04:25.070Z,98782.00
2019-01-29T17:09:26.326Z,98786.00
2019-01-29T17:14:27.608Z,98779.00
2019-01-29T17:19:28.869Z,98773.00
2019-01-29T17:24:30.124Z,98760.00
2019-01-29T17:29:31.469Z,98756.00
2019-01-29T17:34:32.846Z,98737.00
2019-01-29T17:39:34.087Z,98739.00
2019-01-29T17:44:35.360Z,98717.00
2019-01-29T17:49:36.587Z,98719.00
2019-01-29T17:54:37.848Z,98710.00
2019-01-29T17:59:39.110Z,98698.00
2019-01-29T18:04:40.451Z,98684.00
2019-01-29T18:09:41.721Z,98683.00
2019-01-29T18:14:42.995Z,98675.00
2019-01-29T18:19:44.268Z,98666.00
2019-01-29T18:24:45.567Z,98657.00
2019-01-29T18:29:46.811Z,98642.00
2019-01-29T18:34:48.079Z,98644.00
2019-01-29T18:39:49.358Z,98635.00
2019-01-29T18:44:50.741Z,98617.00
2019-01-29T18:49:51.989Z,98617.00
2019-01-29T18:54:53.272Z,98603.00
2019-01-29T18:59:54.519Z,98605.00
2019-01-29T19:04:55.803Z,98587.00
2019-01-29T19:09:57.304Z,98595.00
2019-01-29T19:14:58.554Z,98571.00
2019-01-29T19:19:59.926Z,98583.00
2019-01-29T19:25:01.478Z,98577.00
2019-01-29T19:30:16.579Z,98574.00
2019-01-29T19:35:18.164Z,98566.00
2019-01-29T19:40:19.807Z,98564.00
2019-01-29T19:45:27.819Z,98546.00
2019-01-29T19:50:31.318Z,98543.00
2019-01-29T19:55:32.669Z,98529.00
2019-01-29T20:00:37.852Z,98536.00
2019-01-29T20:05:39.211Z,98518.00
2019-01-29T20:10:40.715Z,98515.00
2019-01-29T20:15:42.345Z,98506.00
2019-01-29T20:20:43.602Z,98508.00
2019-01-29T20:25:44.960Z,98504.00
2019-01-29T20:30:46.209Z,98488.00
2019-01-29T20:35:47.574Z,98494.00
2019-01-29T20:40:48.964Z,98488.00
2019-01-29T20:45:50.271Z,98489.00
2019-01-29T20:50:51.704Z,98477.00
2019-01-29T20:55:53.010Z,98475.00
2019-01-29T21:00:56.745Z,98465.00
2019-01-29T21:05:58.025Z,98471.00
2019-01-29T21:10:59.311Z,98472.00
2019-01-29T21:16:00.892Z,98457.00
2019-01-29T21:21:02.575Z,98453.00
2019-01-29T21:26:03.926Z,98437.00
2019-01-29T21:31:05.193Z,98441.00
2019-01-29T21:36:06.468Z,98432.00
2019-01-29T21:41:07.715Z,98416.00
2019-01-29T21:46:09.098Z,98408.00
2019-01-29T21:51:10.346Z,98408.00
2019-01-29T21:56:13.337Z,98395.00
2019-01-29T22:01:14.717Z,98393.00
2019-01-29T22:06:16.056Z,98394.00
2019-01-29T22:11:19.238Z,98383.00
2019-01-29T22:16:20.483Z,98358.00
2019-01-29T22:21:21.768Z,98363.00
2019-01-29T22:26:23.029Z,98372.00
2019-01-29T22:31:24.279Z,98351.00
2019-01-29T22:36:25.568Z,98331.00
2019-01-29T22:41:26.830Z,98325.00
2019-01-29T22:46:28.141Z,98313.00
2019-01-29T22:51:29.393Z,98297.00
2019-01-29T22:56:30.654Z,98293.00
2019-01-29T23:01:34.113Z,98281.00
2019-01-29T23:06:49.602Z,98275.00
2019-01-29T23:11:50.851Z,98274.00
2019-01-29T23:16:52.110Z,98257.00
2019-01-29T23:21:53.460Z,98254.00
2019-01-29T23:26:54.742Z,98243.00
2019-01-29T23:31:56.375Z,98235.00
2019-01-29T23:36:57.628Z,98224.00
2019-01-29T23:41:58.885Z,98211.00
2019-01-29T23:47:00.131Z,98202.00
2019-01-29T23:52:01.489Z,98185.00
2019-01-29T23:57:03.236Z,98183.00
